sensor_id;sensor_type;location;lat;lon;timestamp;temperature;humidity
54788;DHT22;59598;48.112;16.280;2023-12-07T00:02:21;3.10;99.90
54788;DHT22;59598;48.112;16.280;2023-12-07T00:04:52;3.00;99.90
54788;DHT22;59598;48.112;16.280;2023-12-07T00:07:26;3.00;99.90
54788;DHT22;59598;48.112;16.280;2023-12-07T00:09:58;3.00;99.90
54788;DHT22;59598;48.112;16.280;2023-12-07T00:12:32;3.00;99.90
54788;DHT22;59598;48.112;16.280;2023-12-07T00:15:03;2.90;99.90
54788;DHT22;59598;48.112;16.280;2023-12-07T00:17:37;2.90;1.00
54788;DHT22;59598;48.112;16.280;2023-12-07T00:20:11;2.90;99.90
54788;DHT22;59598;48.112;16.280;2023-12-07T00:22:45;2.90;99.90
54788;DHT22;59598;48.112;16.280;2023-12-07T00:25:18;3.00;99.90
54788;DHT22;59598;48.112;16.280;2023-12-07T00:27:50;3.00;99.90
54788;DHT22;59598;48.112;16.280;2023-12-07T00:30:24;3.00;99.90
54788;DHT22;59598;48.112;16.280;2023-12-07T00:32:57;3.00;99.90
54788;DHT22;59598;48.112;16.280;2023-12-07T00:35:31;3.00;99.90
54788;DHT22;59598;48.112;16.280;2023-12-07T00:38:05;2.90;99.90
54788;DHT22;59598;48.112;16.280;2023-12-07T00:40:39;2.90;99.90
54788;DHT22;59598;48.112;16.280;2023-12-07T00:43:15;2.90;99.90
54788;DHT22;59598;48.112;16.280;2023-12-07T00:45:48;2.90;99.90
54788;DHT22;59598;48.112;16.280;2023-12-07T00:48:20;2.90;99.90
54788;DHT22;59598;48.112;16.280;2023-12-07T00:50:51;2.90;99.90
54788;DHT22;59598;48.112;16.280;2023-12-07T00:53:25;2.90;99.90
54788;DHT22;59598;48.112;16.280;2023-12-07T00:55:59;2.90;99.90
54788;DHT22;59598;48.112;16.280;2023-12-07T00:58:30;2.90;99.90
54788;DHT22;59598;48.112;16.280;2023-12-07T01:01:01;2.90;99.90
54788;DHT22;59598;48.112;16.280;2023-12-07T01:03:34;2.90;99.90
54788;DHT22;59598;48.112;16.280;2023-12-07T01:06:05;2.90;99.90
54788;DHT22;59598;48.112;16.280;2023-12-07T01:08:46;2.90;35.70
54788;DHT22;59598;48.112;16.280;2023-12-07T01:11:18;2.90;75.90
54788;DHT22;59598;48.112;16.280;2023-12-07T01:13:49;3.00;1.00
54788;DHT22;59598;48.112;16.280;2023-12-07T01:16:21;2.90;1.00
54788;DHT22;59598;48.112;16.280;2023-12-07T01:18:52;2.90;1.00
54788;DHT22;59598;48.112;16.280;2023-12-07T01:21:23;2.90;1.00
54788;DHT22;59598;48.112;16.280;2023-12-07T01:23:55;3.00;1.00
54788;DHT22;59598;48.112;16.280;2023-12-07T01:26:29;2.90;1.00
54788;DHT22;59598;48.112;16.280;2023-12-07T01:29:00;3.00;1.00
54788;DHT22;59598;48.112;16.280;2023-12-07T01:31:31;2.90;1.00
54788;DHT22;59598;48.112;16.280;2023-12-07T01:34:05;2.90;1.00
54788;DHT22;59598;48.112;16.280;2023-12-07T01:36:38;2.90;1.00
54788;DHT22;59598;48.112;16.280;2023-12-07T01:39:11;2.90;1.00
54788;DHT22;59598;48.112;16.280;2023-12-07T01:41:43;2.90;1.00
54788;DHT22;59598;48.112;16.280;2023-12-07T01:44:15;2.90;1.00
54788;DHT22;59598;48.112;16.280;2023-12-07T01:46:52;2.80;1.00
54788;DHT22;59598;48.112;16.280;2023-12-07T01:49:26;2.90;1.00
54788;DHT22;59598;48.112;16.280;2023-12-07T01:51:59;2.80;9.80
54788;DHT22;59598;48.112;16.280;2023-12-07T01:54:33;2.80;95.80
54788;DHT22;59598;48.112;16.280;2023-12-07T01:57:05;2.80;21.10
54788;DHT22;59598;48.112;16.280;2023-12-07T01:59:38;2.80;35.80
54788;DHT22;59598;48.112;16.280;2023-12-07T02:02:09;2.80;95.20
54788;DHT22;59598;48.112;16.280;2023-12-07T02:04:40;2.80;37.20
54788;DHT22;59598;48.112;16.280;2023-12-07T02:07:15;2.80;52.20
54788;DHT22;59598;48.112;16.280;2023-12-07T02:09:48;2.80;57.30
54788;DHT22;59598;48.112;16.280;2023-12-07T02:12:24;2.80;1.00
54788;DHT22;59598;48.112;16.280;2023-12-07T02:15:04;2.80;4.60
54788;DHT22;59598;48.112;16.280;2023-12-07T02:18:05;2.80;99.40
54788;DHT22;59598;48.112;16.280;2023-12-07T02:20:45;2.80;65.80
54788;DHT22;59598;48.112;16.280;2023-12-07T02:23:19;2.80;99.90
54788;DHT22;59598;48.112;16.280;2023-12-07T02:29:02;2.70;99.90
54788;DHT22;59598;48.112;16.280;2023-12-07T02:31:39;2.70;99.90
54788;DHT22;59598;48.112;16.280;2023-12-07T02:34:16;2.70;99.90
54788;DHT22;59598;48.112;16.280;2023-12-07T02:36:49;2.70;99.90
54788;DHT22;59598;48.112;16.280;2023-12-07T02:39:25;2.70;99.90
54788;DHT22;59598;48.112;16.280;2023-12-07T02:41:59;2.70;1.00
54788;DHT22;59598;48.112;16.280;2023-12-07T02:44:34;2.60;1.00
54788;DHT22;59598;48.112;16.280;2023-12-07T02:47:08;2.60;1.00
54788;DHT22;59598;48.112;16.280;2023-12-07T02:49:39;2.60;1.00
54788;DHT22;59598;48.112;16.280;2023-12-07T02:52:12;2.60;1.00
54788;DHT22;59598;48.112;16.280;2023-12-07T02:54:45;2.60;1.00
54788;DHT22;59598;48.112;16.280;2023-12-07T02:57:18;2.50;1.00
54788;DHT22;59598;48.112;16.280;2023-12-07T02:59:55;2.60;1.00
54788;DHT22;59598;48.112;16.280;2023-12-07T03:02:27;2.60;1.00
54788;DHT22;59598;48.112;16.280;2023-12-07T03:04:58;2.60;1.00
54788;DHT22;59598;48.112;16.280;2023-12-07T03:07:29;2.60;1.00
54788;DHT22;59598;48.112;16.280;2023-12-07T03:10:03;2.60;1.00
54788;DHT22;59598;48.112;16.280;2023-12-07T03:12:41;2.60;1.00
54788;DHT22;59598;48.112;16.280;2023-12-07T03:15:12;2.60;1.00
54788;DHT22;59598;48.112;16.280;2023-12-07T03:17:44;2.50;1.00
54788;DHT22;59598;48.112;16.280;2023-12-07T03:20:16;2.60;1.00
54788;DHT22;59598;48.112;16.280;2023-12-07T03:22:53;2.60;1.00
54788;DHT22;59598;48.112;16.280;2023-12-07T03:25:30;2.60;99.90
54788;DHT22;59598;48.112;16.280;2023-12-07T03:28:01;2.60;99.90
54788;DHT22;59598;48.112;16.280;2023-12-07T03:30:35;2.60;99.90
54788;DHT22;59598;48.112;16.280;2023-12-07T03:33:09;2.60;99.90
54788;DHT22;59598;48.112;16.280;2023-12-07T03:35:40;2.60;99.90
54788;DHT22;59598;48.112;16.280;2023-12-07T03:38:12;2.60;99.90
54788;DHT22;59598;48.112;16.280;2023-12-07T03:40:43;2.60;99.90
54788;DHT22;59598;48.112;16.280;2023-12-07T03:43:19;2.60;99.90
54788;DHT22;59598;48.112;16.280;2023-12-07T03:45:51;2.70;99.90
54788;DHT22;59598;48.112;16.280;2023-12-07T03:48:23;2.70;99.90
54788;DHT22;59598;48.112;16.280;2023-12-07T03:50:54;2.70;99.90
54788;DHT22;59598;48.112;16.280;2023-12-07T03:53:28;2.60;99.90
54788;DHT22;59598;48.112;16.280;2023-12-07T03:55:59;2.60;99.90
54788;DHT22;59598;48.112;16.280;2023-12-07T03:58:33;2.70;99.90
54788;DHT22;59598;48.112;16.280;2023-12-07T04:01:05;2.70;99.90
54788;DHT22;59598;48.112;16.280;2023-12-07T04:03:39;2.70;99.90
54788;DHT22;59598;48.112;16.280;2023-12-07T04:06:17;2.70;99.90
54788;DHT22;59598;48.112;16.280;2023-12-07T04:08:49;2.80;63.00
54788;DHT22;59598;48.112;16.280;2023-12-07T04:11:21;2.80;99.90
54788;DHT22;59598;48.112;16.280;2023-12-07T04:13:55;2.70;86.50
54788;DHT22;59598;48.112;16.280;2023-12-07T04:16:29;2.70;99.90
54788;DHT22;59598;48.112;16.280;2023-12-07T04:19:03;2.70;99.90
54788;DHT22;59598;48.112;16.280;2023-12-07T04:21:37;2.80;49.80
54788;DHT22;59598;48.112;16.280;2023-12-07T04:24:11;2.80;93.30
54788;DHT22;59598;48.112;16.280;2023-12-07T04:26:42;2.80;49.30
54788;DHT22;59598;48.112;16.280;2023-12-07T04:29:19;2.70;86.40
54788;DHT22;59598;48.112;16.280;2023-12-07T04:31:50;2.80;10.00
54788;DHT22;59598;48.112;16.280;2023-12-07T04:34:23;2.80;8.70
54788;DHT22;59598;48.112;16.280;2023-12-07T04:36:55;2.80;98.00
54788;DHT22;59598;48.112;16.280;2023-12-07T04:39:28;2.80;99.90
54788;DHT22;59598;48.112;16.280;2023-12-07T04:41:59;2.70;99.90
54788;DHT22;59598;48.112;16.280;2023-12-07T04:44:31;2.70;99.90
54788;DHT22;59598;48.112;16.280;2023-12-07T04:47:02;2.80;99.90
54788;DHT22;59598;48.112;16.280;2023-12-07T04:49:33;2.70;99.90
54788;DHT22;59598;48.112;16.280;2023-12-07T04:52:10;2.70;99.90
54788;DHT22;59598;48.112;16.280;2023-12-07T04:54:44;2.70;99.90
54788;DHT22;59598;48.112;16.280;2023-12-07T04:57:15;2.70;99.90
54788;DHT22;59598;48.112;16.280;2023-12-07T04:59:50;2.70;99.90
54788;DHT22;59598;48.112;16.280;2023-12-07T05:02:25;2.70;99.90
54788;DHT22;59598;48.112;16.280;2023-12-07T05:05:02;2.70;99.90
54788;DHT22;59598;48.112;16.280;2023-12-07T05:07:36;2.70;99.90
54788;DHT22;59598;48.112;16.280;2023-12-07T05:10:10;2.70;99.90
54788;DHT22;59598;48.112;16.280;2023-12-07T05:12:41;2.70;99.90
54788;DHT22;59598;48.112;16.280;2023-12-07T05:15:17;2.70;99.90
54788;DHT22;59598;48.112;16.280;2023-12-07T05:17:49;2.70;99.90
54788;DHT22;59598;48.112;16.280;2023-12-07T05:20:23;2.70;99.90
54788;DHT22;59598;48.112;16.280;2023-12-07T05:23:01;2.70;99.90
54788;DHT22;59598;48.112;16.280;2023-12-07T05:25:33;2.70;99.90
54788;DHT22;59598;48.112;16.280;2023-12-07T05:28:08;2.70;99.90
54788;DHT22;59598;48.112;16.280;2023-12-07T05:30:39;2.70;99.90
54788;DHT22;59598;48.112;16.280;2023-12-07T05:33:15;2.70;99.90
54788;DHT22;59598;48.112;16.280;2023-12-07T05:35:54;2.70;13.50
54788;DHT22;59598;48.112;16.280;2023-12-07T05:38:29;2.70;8.50
54788;DHT22;59598;48.112;16.280;2023-12-07T05:41:00;2.70;1.00
54788;DHT22;59598;48.112;16.280;2023-12-07T05:43:32;2.70;1.00
54788;DHT22;59598;48.112;16.280;2023-12-07T05:46:10;2.70;24.00
54788;DHT22;59598;48.112;16.280;2023-12-07T05:48:41;2.70;1.00
54788;DHT22;59598;48.112;16.280;2023-12-07T05:51:16;2.70;1.00
54788;DHT22;59598;48.112;16.280;2023-12-07T05:53:54;2.70;1.00
54788;DHT22;59598;48.112;16.280;2023-12-07T05:56:25;2.70;1.00
54788;DHT22;59598;48.112;16.280;2023-12-07T05:58:56;2.70;1.00
54788;DHT22;59598;48.112;16.280;2023-12-07T06:01:28;2.80;1.00
54788;DHT22;59598;48.112;16.280;2023-12-07T06:04:01;2.80;1.00
54788;DHT22;59598;48.112;16.280;2023-12-07T06:06:32;2.80;1.00
54788;DHT22;59598;48.112;16.280;2023-12-07T06:09:03;2.80;1.00
54788;DHT22;59598;48.112;16.280;2023-12-07T06:11:36;2.70;1.00
54788;DHT22;59598;48.112;16.280;2023-12-07T06:14:07;2.80;1.00
54788;DHT22;59598;48.112;16.280;2023-12-07T06:16:41;2.80;1.00
54788;DHT22;59598;48.112;16.280;2023-12-07T06:19:13;2.80;1.00
54788;DHT22;59598;48.112;16.280;2023-12-07T06:21:46;2.80;1.00
54788;DHT22;59598;48.112;16.280;2023-12-07T06:24:21;2.80;1.00
54788;DHT22;59598;48.112;16.280;2023-12-07T06:26:55;2.80;1.00
54788;DHT22;59598;48.112;16.280;2023-12-07T06:29:29;2.80;1.00
54788;DHT22;59598;48.112;16.280;2023-12-07T06:32:03;2.80;1.00
54788;DHT22;59598;48.112;16.280;2023-12-07T06:34:40;2.80;1.00
54788;DHT22;59598;48.112;16.280;2023-12-07T06:37:11;2.80;1.00
54788;DHT22;59598;48.112;16.280;2023-12-07T06:39:45;2.80;1.00
54788;DHT22;59598;48.112;16.280;2023-12-07T06:42:16;2.80;1.00
54788;DHT22;59598;48.112;16.280;2023-12-07T06:44:50;2.80;1.00
54788;DHT22;59598;48.112;16.280;2023-12-07T06:47:21;2.80;1.00
54788;DHT22;59598;48.112;16.280;2023-12-07T06:50:00;2.80;1.00
54788;DHT22;59598;48.112;16.280;2023-12-07T06:52:36;2.70;1.00
54788;DHT22;59598;48.112;16.280;2023-12-07T06:55:10;2.80;1.00
54788;DHT22;59598;48.112;16.280;2023-12-07T06:57:42;2.80;1.00
54788;DHT22;59598;48.112;16.280;2023-12-07T07:00:16;2.80;1.00
54788;DHT22;59598;48.112;16.280;2023-12-07T07:02:49;2.80;1.00
54788;DHT22;59598;48.112;16.280;2023-12-07T07:05:20;2.80;1.00
54788;DHT22;59598;48.112;16.280;2023-12-07T07:07:54;2.80;1.00
54788;DHT22;59598;48.112;16.280;2023-12-07T07:10:27;2.80;1.00
54788;DHT22;59598;48.112;16.280;2023-12-07T07:13:06;2.80;1.00
54788;DHT22;59598;48.112;16.280;2023-12-07T07:15:37;2.90;1.00
54788;DHT22;59598;48.112;16.280;2023-12-07T07:18:08;2.80;1.00
54788;DHT22;59598;48.112;16.280;2023-12-07T07:20:43;2.80;1.00
54788;DHT22;59598;48.112;16.280;2023-12-07T07:23:15;2.90;1.00
54788;DHT22;59598;48.112;16.280;2023-12-07T07:25:52;2.90;1.00
54788;DHT22;59598;48.112;16.280;2023-12-07T07:28:26;2.90;1.00
54788;DHT22;59598;48.112;16.280;2023-12-07T07:30:57;2.80;1.00
54788;DHT22;59598;48.112;16.280;2023-12-07T07:33:30;2.90;1.00
54788;DHT22;59598;48.112;16.280;2023-12-07T07:36:02;2.90;1.00
54788;DHT22;59598;48.112;16.280;2023-12-07T07:38:33;2.90;1.00
54788;DHT22;59598;48.112;16.280;2023-12-07T07:41:05;2.90;1.00
54788;DHT22;59598;48.112;16.280;2023-12-07T07:43:40;2.80;1.00
54788;DHT22;59598;48.112;16.280;2023-12-07T07:46:14;2.90;1.00
54788;DHT22;59598;48.112;16.280;2023-12-07T07:48:48;2.80;1.00
54788;DHT22;59598;48.112;16.280;2023-12-07T07:51:24;2.80;1.00
54788;DHT22;59598;48.112;16.280;2023-12-07T07:53:55;2.80;1.00
54788;DHT22;59598;48.112;16.280;2023-12-07T07:56:27;2.80;1.00
54788;DHT22;59598;48.112;16.280;2023-12-07T07:58:58;2.80;1.00
54788;DHT22;59598;48.112;16.280;2023-12-07T08:01:34;2.80;1.00
54788;DHT22;59598;48.112;16.280;2023-12-07T08:04:07;2.80;1.00
54788;DHT22;59598;48.112;16.280;2023-12-07T08:06:38;2.80;1.00
54788;DHT22;59598;48.112;16.280;2023-12-07T08:09:10;2.80;1.00
54788;DHT22;59598;48.112;16.280;2023-12-07T08:11:43;2.80;1.00
54788;DHT22;59598;48.112;16.280;2023-12-07T08:14:14;2.80;1.00
54788;DHT22;59598;48.112;16.280;2023-12-07T08:16:46;2.80;1.00
54788;DHT22;59598;48.112;16.280;2023-12-07T08:19:17;2.90;1.00
54788;DHT22;59598;48.112;16.280;2023-12-07T08:21:51;2.90;1.00
54788;DHT22;59598;48.112;16.280;2023-12-07T08:24:24;2.90;1.00
54788;DHT22;59598;48.112;16.280;2023-12-07T08:27:01;2.90;1.00
54788;DHT22;59598;48.112;16.280;2023-12-07T08:29:34;3.00;1.00
54788;DHT22;59598;48.112;16.280;2023-12-07T08:32:09;3.00;1.00
54788;DHT22;59598;48.112;16.280;2023-12-07T08:34:43;3.00;1.00
54788;DHT22;59598;48.112;16.280;2023-12-07T08:37:15;3.00;1.00
54788;DHT22;59598;48.112;16.280;2023-12-07T08:39:46;3.00;1.00
54788;DHT22;59598;48.112;16.280;2023-12-07T08:42:23;3.10;1.00
54788;DHT22;59598;48.112;16.280;2023-12-07T08:44:57;3.10;1.00
54788;DHT22;59598;48.112;16.280;2023-12-07T08:47:29;3.10;1.00
54788;DHT22;59598;48.112;16.280;2023-12-07T08:50:01;3.20;1.00
54788;DHT22;59598;48.112;16.280;2023-12-07T08:52:35;3.20;99.90
54788;DHT22;59598;48.112;16.280;2023-12-07T08:55:06;3.30;99.90
54788;DHT22;59598;48.112;16.280;2023-12-07T08:57:38;3.30;99.90
54788;DHT22;59598;48.112;16.280;2023-12-07T09:00:09;3.30;99.90
54788;DHT22;59598;48.112;16.280;2023-12-07T09:02:46;3.30;99.90
54788;DHT22;59598;48.112;16.280;2023-12-07T09:05:20;3.40;99.90
54788;DHT22;59598;48.112;16.280;2023-12-07T09:07:56;3.40;99.90
54788;DHT22;59598;48.112;16.280;2023-12-07T09:10:27;3.40;99.90
54788;DHT22;59598;48.112;16.280;2023-12-07T09:12:59;3.40;99.90
54788;DHT22;59598;48.112;16.280;2023-12-07T09:15:31;3.30;99.90
54788;DHT22;59598;48.112;16.280;2023-12-07T09:18:13;3.40;99.90
54788;DHT22;59598;48.112;16.280;2023-12-07T09:20:48;3.40;99.90
54788;DHT22;59598;48.112;16.280;2023-12-07T09:23:20;3.40;99.90
54788;DHT22;59598;48.112;16.280;2023-12-07T09:25:51;3.50;99.90
54788;DHT22;59598;48.112;16.280;2023-12-07T09:28:25;3.40;99.90
54788;DHT22;59598;48.112;16.280;2023-12-07T09:31:01;3.40;99.90
54788;DHT22;59598;48.112;16.280;2023-12-07T09:33:33;3.40;99.90
54788;DHT22;59598;48.112;16.280;2023-12-07T09:36:10;3.40;99.90
54788;DHT22;59598;48.112;16.280;2023-12-07T09:38:42;3.40;99.90
54788;DHT22;59598;48.112;16.280;2023-12-07T09:41:15;3.50;99.90
54788;DHT22;59598;48.112;16.280;2023-12-07T09:43:47;3.60;99.90
54788;DHT22;59598;48.112;16.280;2023-12-07T09:46:19;3.80;99.90
54788;DHT22;59598;48.112;16.280;2023-12-07T09:48:50;4.00;1.00
54788;DHT22;59598;48.112;16.280;2023-12-07T09:51:25;4.10;1.00
54788;DHT22;59598;48.112;16.280;2023-12-07T09:53:57;4.50;1.00
54788;DHT22;59598;48.112;16.280;2023-12-07T09:56:30;4.80;1.00
54788;DHT22;59598;48.112;16.280;2023-12-07T09:59:04;4.70;1.00
54788;DHT22;59598;48.112;16.280;2023-12-07T10:01:35;5.00;1.00
54788;DHT22;59598;48.112;16.280;2023-12-07T10:04:19;5.00;1.00
54788;DHT22;59598;48.112;16.280;2023-12-07T10:06:50;4.80;1.00
54788;DHT22;59598;48.112;16.280;2023-12-07T10:09:21;4.80;1.00
54788;DHT22;59598;48.112;16.280;2023-12-07T10:12:05;4.80;1.00
54788;DHT22;59598;48.112;16.280;2023-12-07T10:14:40;4.90;1.00
54788;DHT22;59598;48.112;16.280;2023-12-07T10:17:14;5.20;1.00
54788;DHT22;59598;48.112;16.280;2023-12-07T10:19:45;5.10;1.00
54788;DHT22;59598;48.112;16.280;2023-12-07T10:22:16;5.50;1.00
54788;DHT22;59598;48.112;16.280;2023-12-07T10:24:55;5.80;1.00
54788;DHT22;59598;48.112;16.280;2023-12-07T10:27:27;5.80;1.00
54788;DHT22;59598;48.112;16.280;2023-12-07T10:30:01;5.80;1.00
54788;DHT22;59598;48.112;16.280;2023-12-07T10:32:36;5.70;1.00
54788;DHT22;59598;48.112;16.280;2023-12-07T10:35:10;5.90;1.00
54788;DHT22;59598;48.112;16.280;2023-12-07T10:37:42;5.70;1.00
54788;DHT22;59598;48.112;16.280;2023-12-07T10:40:13;5.30;99.90
54788;DHT22;59598;48.112;16.280;2023-12-07T10:42:47;5.40;99.90
54788;DHT22;59598;48.112;16.280;2023-12-07T10:45:21;5.80;99.90
54788;DHT22;59598;48.112;16.280;2023-12-07T10:47:56;5.80;99.90
54788;DHT22;59598;48.112;16.280;2023-12-07T10:50:34;5.60;99.90
54788;DHT22;59598;48.112;16.280;2023-12-07T10:53:15;6.00;99.90
54788;DHT22;59598;48.112;16.280;2023-12-07T10:55:56;6.40;99.90
54788;DHT22;59598;48.112;16.280;2023-12-07T10:58:35;6.60;99.90
54788;DHT22;59598;48.112;16.280;2023-12-07T11:01:08;6.00;99.90
54788;DHT22;59598;48.112;16.280;2023-12-07T11:03:43;6.10;99.90
54788;DHT22;59598;48.112;16.280;2023-12-07T11:06:18;6.60;99.90
54788;DHT22;59598;48.112;16.280;2023-12-07T11:08:52;7.20;99.90
54788;DHT22;59598;48.112;16.280;2023-12-07T11:11:52;7.00;99.90
54788;DHT22;59598;48.112;16.280;2023-12-07T11:14:25;6.80;99.90
54788;DHT22;59598;48.112;16.280;2023-12-07T11:16:57;6.90;99.90
54788;DHT22;59598;48.112;16.280;2023-12-07T11:22:07;7.20;99.90
54788;DHT22;59598;48.112;16.280;2023-12-07T11:24:59;7.10;99.90
54788;DHT22;59598;48.112;16.280;2023-12-07T11:27:33;6.60;46.30
54788;DHT22;59598;48.112;16.280;2023-12-07T11:30:06;6.30;41.10
54788;DHT22;59598;48.112;16.280;2023-12-07T11:32:39;7.00;98.30
54788;DHT22;59598;48.112;16.280;2023-12-07T11:35:12;7.30;99.90
54788;DHT22;59598;48.112;16.280;2023-12-07T11:38:03;7.70;99.90
54788;DHT22;59598;48.112;16.280;2023-12-07T11:40:41;7.70;91.80
54788;DHT22;59598;48.112;16.280;2023-12-07T11:44:04;7.20;11.70
54788;DHT22;59598;48.112;16.280;2023-12-07T11:46:11;7.20;30.50
54788;DHT22;59598;48.112;16.280;2023-12-07T11:48:48;6.80;1.00
54788;DHT22;59598;48.112;16.280;2023-12-07T11:51:20;7.30;72.40
54788;DHT22;59598;48.112;16.280;2023-12-07T11:53:54;7.30;53.00
54788;DHT22;59598;48.112;16.280;2023-12-07T11:56:26;7.10;46.20
54788;DHT22;59598;48.112;16.280;2023-12-07T11:58:57;7.20;58.30
54788;DHT22;59598;48.112;16.280;2023-12-07T12:01:30;7.50;99.90
54788;DHT22;59598;48.112;16.280;2023-12-07T12:04:01;7.50;65.90
54788;DHT22;59598;48.112;16.280;2023-12-07T12:06:37;7.10;12.20
54788;DHT22;59598;48.112;16.280;2023-12-07T12:09:17;6.90;1.00
54788;DHT22;59598;48.112;16.280;2023-12-07T12:11:51;6.90;1.00
54788;DHT22;59598;48.112;16.280;2023-12-07T12:14:23;6.80;37.20
54788;DHT22;59598;48.112;16.280;2023-12-07T12:16:54;6.60;1.00
54788;DHT22;59598;48.112;16.280;2023-12-07T12:19:26;6.40;1.00
54788;DHT22;59598;48.112;16.280;2023-12-07T12:22:02;6.30;1.00
54788;DHT22;59598;48.112;16.280;2023-12-07T12:24:36;6.50;1.00
54788;DHT22;59598;48.112;16.280;2023-12-07T12:27:08;7.00;49.50
54788;DHT22;59598;48.112;16.280;2023-12-07T12:29:42;7.50;99.50
54788;DHT22;59598;48.112;16.280;2023-12-07T12:32:13;7.50;1.60
54788;DHT22;59598;48.112;16.280;2023-12-07T12:34:47;8.00;1.00
54788;DHT22;59598;48.112;16.280;2023-12-07T12:37:24;7.70;1.00
54788;DHT22;59598;48.112;16.280;2023-12-07T12:39:56;7.80;1.00
54788;DHT22;59598;48.112;16.280;2023-12-07T12:42:33;7.90;1.00
54788;DHT22;59598;48.112;16.280;2023-12-07T12:45:07;8.50;1.00
54788;DHT22;59598;48.112;16.280;2023-12-07T12:47:40;8.30;1.00
54788;DHT22;59598;48.112;16.280;2023-12-07T12:50:37;8.10;1.00
54788;DHT22;59598;48.112;16.280;2023-12-07T12:53:10;8.10;1.00
54788;DHT22;59598;48.112;16.280;2023-12-07T12:55:42;8.30;1.00
54788;DHT22;59598;48.112;16.280;2023-12-07T12:58:14;7.80;1.00
54788;DHT22;59598;48.112;16.280;2023-12-07T13:00:48;7.90;1.00
54788;DHT22;59598;48.112;16.280;2023-12-07T13:03:19;8.00;1.00
54788;DHT22;59598;48.112;16.280;2023-12-07T13:05:50;7.50;1.00
54788;DHT22;59598;48.112;16.280;2023-12-07T13:08:21;7.80;1.00
54788;DHT22;59598;48.112;16.280;2023-12-07T13:10:53;7.90;1.00
54788;DHT22;59598;48.112;16.280;2023-12-07T13:13:24;7.80;1.00
54788;DHT22;59598;48.112;16.280;2023-12-07T13:15:56;7.10;1.00
54788;DHT22;59598;48.112;16.280;2023-12-07T13:18:27;6.70;1.00
54788;DHT22;59598;48.112;16.280;2023-12-07T13:20:58;6.60;1.00
54788;DHT22;59598;48.112;16.280;2023-12-07T13:23:30;6.60;1.00
54788;DHT22;59598;48.112;16.280;2023-12-07T13:26:04;6.30;1.00
54788;DHT22;59598;48.112;16.280;2023-12-07T13:28:37;6.10;1.00
54788;DHT22;59598;48.112;16.280;2023-12-07T13:31:11;6.10;1.00
54788;DHT22;59598;48.112;16.280;2023-12-07T13:33:45;5.80;1.00
54788;DHT22;59598;48.112;16.280;2023-12-07T13:36:16;5.90;1.00
54788;DHT22;59598;48.112;16.280;2023-12-07T13:38:59;6.10;1.00
54788;DHT22;59598;48.112;16.280;2023-12-07T13:41:35;5.80;1.00
54788;DHT22;59598;48.112;16.280;2023-12-07T13:44:07;5.40;1.00
54788;DHT22;59598;48.112;16.280;2023-12-07T13:46:38;5.10;1.00
54788;DHT22;59598;48.112;16.280;2023-12-07T13:49:11;4.70;1.00
54788;DHT22;59598;48.112;16.280;2023-12-07T13:51:47;4.50;1.00
54788;DHT22;59598;48.112;16.280;2023-12-07T13:54:18;4.40;1.00
54788;DHT22;59598;48.112;16.280;2023-12-07T13:56:52;4.10;1.00
54788;DHT22;59598;48.112;16.280;2023-12-07T13:59:24;3.90;1.00
54788;DHT22;59598;48.112;16.280;2023-12-07T14:01:55;3.80;1.00
54788;DHT22;59598;48.112;16.280;2023-12-07T14:04:26;3.70;1.00
54788;DHT22;59598;48.112;16.280;2023-12-07T14:07:13;3.60;1.00
54788;DHT22;59598;48.112;16.280;2023-12-07T14:09:49;3.50;96.50
54788;DHT22;59598;48.112;16.280;2023-12-07T14:12:21;3.50;99.90
54788;DHT22;59598;48.112;16.280;2023-12-07T14:14:53;3.40;99.90
54788;DHT22;59598;48.112;16.280;2023-12-07T14:17:26;3.30;99.90
54788;DHT22;59598;48.112;16.280;2023-12-07T14:19:57;3.30;1.00
54788;DHT22;59598;48.112;16.280;2023-12-07T14:22:29;3.20;1.00
54788;DHT22;59598;48.112;16.280;2023-12-07T14:25:03;3.10;1.00
54788;DHT22;59598;48.112;16.280;2023-12-07T14:27:34;3.00;1.00
54788;DHT22;59598;48.112;16.280;2023-12-07T14:30:06;3.00;34.40
54788;DHT22;59598;48.112;16.280;2023-12-07T14:32:38;2.90;99.90
54788;DHT22;59598;48.112;16.280;2023-12-07T14:35:12;2.80;99.90
54788;DHT22;59598;48.112;16.280;2023-12-07T14:37:43;2.80;99.90
54788;DHT22;59598;48.112;16.280;2023-12-07T14:40:15;2.70;99.90
54788;DHT22;59598;48.112;16.280;2023-12-07T14:42:49;2.70;99.90
54788;DHT22;59598;48.112;16.280;2023-12-07T14:45:21;2.70;1.00
54788;DHT22;59598;48.112;16.280;2023-12-07T14:47:55;2.70;1.00
54788;DHT22;59598;48.112;16.280;2023-12-07T14:50:26;2.80;1.00
54788;DHT22;59598;48.112;16.280;2023-12-07T14:53:00;2.80;99.90
54788;DHT22;59598;48.112;16.280;2023-12-07T14:55:31;2.80;99.90
54788;DHT22;59598;48.112;16.280;2023-12-07T14:58:05;2.80;99.90
54788;DHT22;59598;48.112;16.280;2023-12-07T15:00:37;2.80;99.90
54788;DHT22;59598;48.112;16.280;2023-12-07T15:03:08;2.80;99.90
54788;DHT22;59598;48.112;16.280;2023-12-07T15:05:42;2.70;99.90
54788;DHT22;59598;48.112;16.280;2023-12-07T15:08:13;2.70;1.00
54788;DHT22;59598;48.112;16.280;2023-12-07T15:10:45;2.70;99.90
54788;DHT22;59598;48.112;16.280;2023-12-07T15:13:16;2.70;99.90
54788;DHT22;59598;48.112;16.280;2023-12-07T15:15:49;2.70;1.00
54788;DHT22;59598;48.112;16.280;2023-12-07T15:18:21;2.70;99.90
54788;DHT22;59598;48.112;16.280;2023-12-07T15:20:54;2.80;99.90
54788;DHT22;59598;48.112;16.280;2023-12-07T15:23:26;2.80;99.90
54788;DHT22;59598;48.112;16.280;2023-12-07T15:26:00;2.90;99.90
54788;DHT22;59598;48.112;16.280;2023-12-07T15:28:31;2.90;99.90
54788;DHT22;59598;48.112;16.280;2023-12-07T15:31:08;2.90;99.90
54788;DHT22;59598;48.112;16.280;2023-12-07T15:33:41;2.90;99.90
54788;DHT22;59598;48.112;16.280;2023-12-07T15:36:13;2.90;99.90
54788;DHT22;59598;48.112;16.280;2023-12-07T15:38:44;3.00;20.40
54788;DHT22;59598;48.112;16.280;2023-12-07T15:41:18;3.00;1.00
54788;DHT22;59598;48.112;16.280;2023-12-07T15:43:49;3.00;1.00
54788;DHT22;59598;48.112;16.280;2023-12-07T15:46:24;3.00;1.00
54788;DHT22;59598;48.112;16.280;2023-12-07T15:48:58;3.00;1.00
54788;DHT22;59598;48.112;16.280;2023-12-07T15:51:30;3.00;1.00
54788;DHT22;59598;48.112;16.280;2023-12-07T15:54:01;3.10;1.00
54788;DHT22;59598;48.112;16.280;2023-12-07T15:56:38;3.00;1.00
54788;DHT22;59598;48.112;16.280;2023-12-07T15:59:09;3.10;1.00
54788;DHT22;59598;48.112;16.280;2023-12-07T16:01:43;3.10;1.00
54788;DHT22;59598;48.112;16.280;2023-12-07T16:04:17;3.10;1.00
54788;DHT22;59598;48.112;16.280;2023-12-07T16:06:49;3.10;1.00
54788;DHT22;59598;48.112;16.280;2023-12-07T16:09:20;3.00;1.00
54788;DHT22;59598;48.112;16.280;2023-12-07T16:12:00;3.10;1.00
54788;DHT22;59598;48.112;16.280;2023-12-07T16:14:32;3.00;1.00
54788;DHT22;59598;48.112;16.280;2023-12-07T16:17:05;3.00;1.00
54788;DHT22;59598;48.112;16.280;2023-12-07T16:19:36;3.00;1.00
54788;DHT22;59598;48.112;16.280;2023-12-07T16:22:08;3.00;1.00
54788;DHT22;59598;48.112;16.280;2023-12-07T16:24:42;3.00;1.00
54788;DHT22;59598;48.112;16.280;2023-12-07T16:27:16;3.00;1.00